Date,TemperatureHighF,TemperatureAvgF,TemperatureLowF,DewpointHighF,DewpointAvgF,DewpointLowF,HumidityHigh,HumidityAvg,HumidityLow,PressureMaxIn,PressureMinIn,WindSpeedMaxMPH,WindSpeedAvgMPH,GustSpeedMaxMPH,PrecipitationSumIn
2013-2-1,52.5,46.4,43.1,20.0,0.8,-11.0,35,16,9,29.86,29.78,6,3,9,0.00
2013-2-2,53.6,48.9,42.9,21.0,2.6,-18.0,28,16,5,29.90,29.79,7,2,11,0.00
2013-2-3,50.8,45.8,39.3,32.0,15.5,-15.0,74,36,6,29.79,29.54,15,4,26,0.00
2013-2-4,48.3,40.6,37.0,36.0,33.8,31.0,89,77,61,29.68,29.57,14,4,21,0.00
2013-2-5,51.3,41.3,36.5,38.0,33.9,30.0,86,75,59,29.70,29.61,10,3,19,0.00
2013-2-6,44.3,38.2,34.7,35.0,32.1,30.0,87,79,66,29.71,29.57,14,5,24,0.00
2013-2-7,47.3,37.5,29.7,33.0,28.4,22.0,92,71,51,29.81,29.70,10,3,18,0.00
2013-2-8,40.2,36.6,28.0,24.0,16.8,8.0,74,46,29,29.69,29.40,23,8,32,0.00
2013-2-9,27.8,21.3,17.3,23.0,17.6,15.0,93,86,64,29.80,29.33,28,12,44,0.00
2013-2-10,33.8,24.4,17.4,22.0,13.9,5.0,88,66,45,29.84,29.74,20,5,27,0.00
2013-2-11,24.0,21.1,17.4,21.0,15.5,5.0,93,80,47,29.88,29.68,16,7,25,0.00
2013-2-12,29.0,20.2,12.9,27.0,16.4,-99.9,93,88,69,30.05,29.89,9,-8,11,0.04
2013-2-13,41.5,33.5,21.7,20.0,3.1,-18.0,65,30,11,30.04,29.84,5,1,7,0.04
2013-2-14,44.2,37.3,31.7,22.0,13.8,5.0,61,39,26,29.84,29.75,10,3,17,0.00
2013-2-15,44.6,39.0,35.0,18.0,11.7,6.0,47,33,21,29.97,29.82,12,5,14,0.00
2013-2-16,46.7,41.6,36.0,8.0,-1.0,-11.0,29,17,10,29.97,29.74,12,7,18,0.00
2013-2-17,46.6,41.4,35.2,15.0,5.1,-6.0,43,23,13,29.74,29.49,33,15,44,0.00
2013-2-18,46.1,37.8,32.8,15.0,8.8,-2.0,46,30,19,29.76,29.57,25,4,33,0.00
2013-2-19,42.3,37.1,30.2,19.0,10.2,5.0,63,33,24,29.64,29.34,15,6,32,0.00
2013-2-20,29.5,21.1,15.1,24.0,18.7,13.0,94,90,66,29.63,29.24,45,12,53,0.00
2013-2-21,28.0,22.0,15.0,25.0,19.7,12.0,95,91,84,29.84,29.63,26,7,31,0.00
2013-2-22,32.4,25.9,20.4,25.0,17.3,-4.0,93,73,25,29.92,29.76,13,5,19,0.01
2013-2-23,42.8,35.2,26.3,20.0,11.3,3.0,53,38,28,29.91,29.52,25,7,38,0.06
2013-2-24,32.4,21.8,17.9,20.0,7.1,-99.9,91,60,45,29.84,29.39,40,-18,46,0.06
2013-2-25,37.7,27.9,16.9,15.0,1.5,-35.0,70,41,4,30.04,29.84,12,4,19,0.00
2013-2-26,41.0,34.7,25.7,13.0,-2.7,-25.0,51,22,7,29.83,29.64,21,9,26,0.00
2013-2-27,40.4,31.0,24.7,9.0,0.6,-9.0,50,27,20,29.95,29.76,7,2,10,0.00
2013-2-28,43.9,34.6,26.7,9.0,-0.4,-18.0,34,23,9,30.09,29.92,10,2,11,0.00